createdAt,value
2018-04-15T00:00:24.869Z,8.23
2018-04-15T00:02:52.367Z,6.40
2018-04-15T00:05:19.902Z,4.77
2018-04-15T00:07:48.183Z,6.70
2018-04-15T00:10:15.707Z,7.83
2018-04-15T00:12:44.143Z,7.37
2018-04-15T00:15:12.006Z,6.30
2018-04-15T00:17:40.795Z,5.63
2018-04-15T00:20:08.600Z,5.20
2018-04-15T00:22:36.197Z,7.63
2018-04-15T00:25:04.088Z,9.30
2018-04-15T00:27:31.847Z,7.93
2018-04-15T00:29:59.714Z,6.70
2018-04-15T00:32:27.580Z,5.93
2018-04-15T00:34:55.459Z,4.80
2018-04-15T00:37:24.947Z,7.00
2018-04-15T00:39:53.630Z,6.77
2018-04-15T00:42:21.418Z,9.30
2018-04-15T00:44:49.201Z,8.93
2018-04-15T00:47:17.858Z,6.00
2018-04-15T00:49:46.485Z,5.50
2018-04-15T00:52:15.108Z,6.90
2018-04-15T00:54:42.870Z,6.83
2018-04-15T00:57:10.737Z,7.70
2018-04-15T00:59:38.602Z,11.90
2018-04-15T01:02:07.289Z,6.83
2018-04-15T01:04:34.815Z,6.70
2018-04-15T01:07:03.105Z,6.90
2018-04-15T01:09:30.641Z,5.60
2018-04-15T01:11:58.902Z,6.77
2018-04-15T01:14:27.347Z,8.37
2018-04-15T01:16:54.864Z,7.10
2018-04-15T01:19:23.168Z,6.93
2018-04-15T01:21:50.710Z,6.33
2018-04-15T01:24:18.252Z,4.80
2018-04-15T01:26:46.559Z,7.37
2018-04-15T01:29:14.059Z,7.80
2018-04-15T01:31:41.595Z,5.13
2018-04-15T01:34:09.099Z,4.90
2018-04-15T01:36:37.363Z,5.80
2018-04-15T01:39:07.634Z,6.17
2018-04-15T01:41:35.138Z,16.87
2018-04-15T01:44:02.687Z,6.50
2018-04-15T01:46:30.179Z,4.87
2018-04-15T01:48:58.656Z,5.73
2018-04-15T01:51:26.175Z,7.63
2018-04-15T01:53:53.675Z,4.57
2018-04-15T01:56:23.203Z,6.90
2018-04-15T01:58:50.707Z,5.33
2018-04-15T02:01:18.907Z,6.67
2018-04-15T02:03:46.426Z,6.00
2018-04-15T02:06:13.919Z,5.63
2018-04-15T02:08:41.428Z,6.13
2018-04-15T02:11:08.950Z,5.10
2018-04-15T02:13:36.451Z,5.27
2018-04-15T02:16:03.975Z,5.40
2018-04-15T02:18:31.459Z,5.83
2018-04-15T02:20:58.946Z,6.53
2018-04-15T02:23:27.230Z,10.37
2018-04-15T02:25:55.514Z,8.40
2018-04-15T02:28:25.004Z,6.00
2018-04-15T02:30:53.275Z,5.40
2018-04-15T02:33:21.555Z,6.60
2018-04-15T02:35:49.847Z,5.80
2018-04-15T02:38:17.359Z,4.40
2018-04-15T02:40:45.668Z,4.67
2018-04-15T02:43:13.184Z,5.67
2018-04-15T02:45:40.752Z,5.30
2018-04-15T02:48:09.040Z,7.13
2018-04-15T02:50:37.324Z,5.47
2018-04-15T02:53:05.618Z,7.83
2018-04-15T02:55:33.119Z,4.80
2018-04-15T02:58:00.645Z,5.87
2018-04-15T03:00:28.143Z,5.50
2018-04-15T03:02:55.647Z,7.20
2018-04-15T03:05:25.155Z,4.80
2018-04-15T03:07:52.655Z,6.87
2018-04-15T03:10:20.189Z,4.87
2018-04-15T03:12:47.688Z,5.47
2018-04-15T03:15:16.930Z,6.43
2018-04-15T03:17:44.463Z,4.40
2018-04-15T03:20:13.703Z,5.23
2018-04-15T03:22:41.232Z,5.17
2018-04-15T03:25:08.740Z,5.53
2018-04-15T03:27:36.243Z,5.00
2018-04-15T03:30:03.760Z,5.23
2018-04-15T03:32:31.251Z,4.93
2018-04-15T03:34:58.807Z,4.87
2018-04-15T03:37:26.335Z,5.23
2018-04-15T03:39:53.834Z,5.57
2018-04-15T03:42:21.351Z,6.17
2018-04-15T03:44:49.648Z,5.27
2018-04-15T03:47:17.948Z,6.10
2018-04-15T03:49:45.447Z,5.00
2018-04-15T03:52:12.971Z,5.40
2018-04-15T03:54:40.493Z,5.37
2018-04-15T03:57:08.759Z,5.00
2018-04-15T03:59:36.287Z,6.00
2018-04-15T04:02:03.803Z,7.40
2018-04-15T04:04:31.301Z,5.33
2018-04-15T04:06:58.839Z,4.60
2018-04-15T04:09:26.363Z,4.97
2018-04-15T04:11:54.643Z,4.57
2018-04-15T04:14:22.152Z,7.00
2018-04-15T04:16:49.663Z,5.67
2018-04-15T04:19:28.978Z,4.87
2018-04-15T04:22:09.195Z,7.47
2018-04-15T04:24:50.428Z,7.10
2018-04-15T04:27:17.925Z,5.70
2018-04-15T04:29:45.449Z,4.47
2018-04-15T04:32:13.916Z,5.27
2018-04-15T04:34:41.438Z,5.23
2018-04-15T04:37:08.965Z,5.83
2018-04-15T04:39:36.463Z,7.37
2018-04-15T04:42:04.795Z,5.43
2018-04-15T04:44:32.299Z,5.00
2018-04-15T04:47:00.571Z,5.10
2018-04-15T04:49:28.092Z,4.77
2018-04-15T04:51:55.587Z,9.63
2018-04-15T04:54:23.141Z,5.03
2018-04-15T04:56:51.413Z,4.63
2018-04-15T04:59:19.684Z,6.07
2018-04-15T05:01:47.211Z,6.17
2018-04-15T05:04:14.700Z,4.83
2018-04-15T05:06:45.671Z,4.53
2018-04-15T05:09:13.177Z,5.13
2018-04-15T05:11:40.679Z,4.93
2018-04-15T05:14:08.202Z,6.90
2018-04-15T05:16:35.698Z,5.27
2018-04-15T05:19:03.228Z,4.90
2018-04-15T05:21:31.488Z,10.40
2018-04-15T05:23:58.975Z,5.03
2018-04-15T05:26:27.266Z,5.47
2018-04-15T05:28:54.765Z,5.53
2018-04-15T05:31:22.288Z,5.17
2018-04-15T05:33:49.781Z,5.37
2018-04-15T05:36:17.271Z,6.50
2018-04-15T05:38:45.560Z,3.83
2018-04-15T05:41:13.058Z,4.70
2018-04-15T05:43:40.578Z,4.90
2018-04-15T05:46:08.084Z,4.77
2018-04-15T05:48:35.585Z,6.50
2018-04-15T05:51:03.870Z,5.60
2018-04-15T05:53:32.346Z,6.20
2018-04-15T05:55:59.882Z,5.43
2018-04-15T05:58:28.143Z,4.90
2018-04-15T06:00:57.166Z,5.23
2018-04-15T06:03:25.451Z,5.60
2018-04-15T06:05:52.950Z,4.60
2018-04-15T06:08:20.472Z,6.33
2018-04-15T06:10:47.990Z,4.87
2018-04-15T06:13:15.492Z,4.57
2018-04-15T06:15:43.050Z,5.53
2018-04-15T06:18:11.506Z,5.33
2018-04-15T06:20:41.731Z,5.47
2018-04-15T06:23:10.000Z,6.07
2018-04-15T06:25:38.271Z,6.10
2018-04-15T06:28:06.556Z,7.10
2018-04-15T06:30:34.048Z,6.47
2018-04-15T06:33:01.597Z,5.27
2018-04-15T06:35:29.096Z,7.10
2018-04-15T06:37:56.860Z,5.57
2018-04-15T06:40:24.391Z,5.50
2018-04-15T06:42:51.891Z,4.27
2018-04-15T06:45:21.178Z,5.20
2018-04-15T06:47:48.664Z,4.30
2018-04-15T06:50:16.168Z,5.67
2018-04-15T06:52:43.714Z,5.17
2018-04-15T06:55:11.207Z,4.87
2018-04-15T06:57:39.506Z,5.53
2018-04-15T07:00:07.005Z,4.60
2018-04-15T07:02:34.501Z,5.20
2018-04-15T07:05:02.796Z,4.60
2018-04-15T07:07:30.294Z,4.50
2018-04-15T07:09:58.757Z,8.33
2018-04-15T07:12:27.228Z,5.43
2018-04-15T07:14:54.726Z,4.47
2018-04-15T07:17:22.250Z,5.17
2018-04-15T07:19:49.821Z,4.07
2018-04-15T07:22:17.315Z,5.10
2018-04-15T07:24:44.842Z,4.93
2018-04-15T07:27:13.140Z,5.53
2018-04-15T07:29:41.431Z,5.57
2018-04-15T07:32:09.728Z,4.73
2018-04-15T07:34:37.237Z,5.03
2018-04-15T07:37:04.773Z,4.30
2018-04-15T07:39:32.276Z,2.90
2018-04-15T07:42:00.579Z,4.33
2018-04-15T07:44:28.097Z,4.00
2018-04-15T07:46:57.328Z,4.17
2018-04-15T07:49:24.857Z,4.50
2018-04-15T07:51:53.130Z,4.03
2018-04-15T07:54:21.427Z,3.27
2018-04-15T07:56:49.719Z,3.47
2018-04-15T07:59:18.211Z,3.90
2018-04-15T08:01:45.739Z,5.80
2018-04-15T08:04:14.015Z,3.30
2018-04-15T08:06:42.312Z,3.80
2018-04-15T08:09:09.811Z,3.70
2018-04-15T08:11:37.319Z,4.90
2018-04-15T08:14:04.859Z,5.40
2018-04-15T08:16:33.137Z,4.90
2018-04-15T08:19:01.434Z,3.80
2018-04-15T08:21:28.957Z,3.90
2018-04-15T08:23:57.231Z,3.80
2018-04-15T08:26:25.556Z,5.30
2018-04-15T08:28:53.086Z,3.60
2018-04-15T08:31:20.716Z,3.93
2018-04-15T08:33:48.977Z,3.40
2018-04-15T08:36:16.495Z,3.83
2018-04-15T08:38:45.979Z,4.10
2018-04-15T08:41:13.488Z,3.87
2018-04-15T08:43:41.023Z,4.10
2018-04-15T08:46:08.574Z,3.63
2018-04-15T08:48:38.091Z,3.37
2018-04-15T08:51:05.595Z,3.93
2018-04-15T08:53:33.899Z,3.67
2018-04-15T08:56:01.399Z,3.60
2018-04-15T08:58:28.924Z,3.37
2018-04-15T09:00:57.512Z,5.00
2018-04-15T09:03:25.016Z,3.63
2018-04-15T09:05:53.311Z,3.50
2018-04-15T09:08:21.579Z,5.43
2018-04-15T09:10:49.855Z,3.30
2018-04-15T09:13:19.112Z,3.43
2018-04-15T09:15:46.654Z,3.50
2018-04-15T09:18:14.234Z,3.20
2018-04-15T09:20:41.727Z,3.83
2018-04-15T09:23:10.055Z,3.10
2018-04-15T09:25:37.535Z,3.30
2018-04-15T09:28:05.113Z,3.30
2018-04-15T09:30:38.995Z,3.03
2018-04-15T09:33:08.481Z,3.33
2018-04-15T09:35:36.032Z,3.63
2018-04-15T09:38:03.540Z,3.30
2018-04-15T09:40:31.824Z,3.87
2018-04-15T09:42:59.451Z,4.20
2018-04-15T09:45:27.035Z,2.53
2018-04-15T09:47:55.305Z,3.30
2018-04-15T09:50:23.600Z,3.80
2018-04-15T09:52:51.171Z,3.40
2018-04-15T09:55:18.663Z,2.83
2018-04-15T09:57:46.159Z,5.73
2018-04-15T10:00:19.367Z,3.73
2018-04-15T10:02:46.873Z,3.63
2018-04-15T10:05:15.267Z,3.37
2018-04-15T10:07:43.714Z,3.83
2018-04-15T10:10:11.349Z,2.83
2018-04-15T10:12:38.909Z,6.30
2018-04-15T10:15:06.429Z,2.97
2018-04-15T10:17:34.721Z,2.73
2018-04-15T10:20:03.017Z,6.17
2018-04-15T10:22:30.540Z,4.80
2018-04-15T10:24:58.824Z,4.03
2018-04-15T10:27:26.732Z,4.83
2018-04-15T10:29:54.522Z,7.07
2018-04-15T10:32:22.044Z,3.13
2018-04-15T10:34:49.581Z,3.07
2018-04-15T10:37:17.113Z,3.00
2018-04-15T10:39:46.587Z,2.90
2018-04-15T10:42:14.095Z,3.80
2018-04-15T10:44:41.600Z,3.93
2018-04-15T10:47:09.120Z,3.40
2018-04-15T10:49:36.651Z,6.00
2018-04-15T10:52:04.952Z,3.13
2018-04-15T10:54:32.462Z,3.10
2018-04-15T10:57:00.206Z,2.80
2018-04-15T10:59:28.614Z,2.60
2018-04-15T11:01:57.347Z,4.20
2018-04-15T11:04:26.133Z,3.77
2018-04-15T11:06:54.777Z,2.80
2018-04-15T11:09:23.069Z,2.50
2018-04-15T11:11:51.364Z,2.97
2018-04-15T11:14:18.915Z,7.90
2018-04-15T11:16:46.562Z,3.47
2018-04-15T11:19:14.393Z,2.60
2018-04-15T11:21:42.317Z,2.63
2018-04-15T11:24:11.124Z,3.03
2018-04-15T11:26:40.352Z,3.00
2018-04-15T11:29:07.901Z,2.80
2018-04-15T11:31:36.383Z,3.37
2018-04-15T11:34:03.912Z,2.30
2018-04-15T11:36:31.432Z,6.13
2018-04-15T11:38:59.702Z,2.60
2018-04-15T11:41:28.204Z,3.33
2018-04-15T11:43:55.732Z,3.97
2018-04-15T11:46:23.999Z,2.70
2018-04-15T11:48:53.470Z,3.13
2018-04-15T11:51:20.997Z,2.70
2018-04-15T11:53:48.495Z,3.03
2018-04-15T11:56:16.015Z,3.20
2018-04-15T11:58:43.513Z,3.83
2018-04-15T12:01:11.029Z,4.30
2018-04-15T12:03:40.545Z,3.27
2018-04-15T12:06:08.073Z,4.50
2018-04-15T12:08:35.590Z,2.93
2018-04-15T12:11:03.097Z,2.83
2018-04-15T12:13:30.595Z,3.03
2018-04-15T12:15:58.132Z,2.50
2018-04-15T12:18:25.668Z,4.20
2018-04-15T12:20:53.163Z,2.53
2018-04-15T12:23:20.691Z,2.80
2018-04-15T12:25:48.211Z,2.53
2018-04-15T12:28:16.494Z,3.90
2018-04-15T12:30:44.760Z,4.50
2018-04-15T12:33:13.059Z,4.10
2018-04-15T12:35:40.643Z,2.93
2018-04-15T12:38:08.146Z,4.13
2018-04-15T12:40:35.703Z,6.63
2018-04-15T12:43:03.969Z,4.00
2018-04-15T12:45:31.495Z,3.80
2018-04-15T12:47:58.988Z,4.03
2018-04-15T12:50:27.272Z,3.67
2018-04-15T12:52:54.775Z,2.47
2018-04-15T12:55:22.294Z,2.50
2018-04-15T12:57:50.567Z,2.87
2018-04-15T13:00:18.859Z,2.73
2018-04-15T13:02:46.383Z,2.83
2018-04-15T13:05:14.653Z,2.83
2018-04-15T13:07:42.218Z,4.20
2018-04-15T13:10:11.231Z,2.67
2018-04-15T13:12:39.526Z,2.07
2018-04-15T13:15:07.040Z,2.57
2018-04-15T13:17:34.571Z,2.77
2018-04-15T13:20:02.075Z,5.17
2018-04-15T13:22:30.378Z,3.37
2018-04-15T13:24:57.884Z,2.60
2018-04-15T13:27:27.836Z,2.57
2018-04-15T13:29:55.382Z,2.17
2018-04-15T13:32:23.655Z,2.63
2018-04-15T13:34:52.029Z,3.33
2018-04-15T13:37:20.286Z,2.33
2018-04-15T13:39:47.811Z,6.23
2018-04-15T13:42:15.320Z,2.10
2018-04-15T13:44:44.593Z,6.40
2018-04-15T13:47:12.091Z,2.40
2018-04-15T13:49:41.555Z,2.77
2018-04-15T13:52:09.067Z,4.17
2018-04-15T13:54:36.570Z,2.40
2018-04-15T13:57:04.859Z,2.93
2018-04-15T13:59:33.136Z,3.93
2018-04-15T14:02:01.439Z,3.33
2018-04-15T14:04:28.957Z,4.43
2018-04-15T14:06:56.502Z,2.60
2018-04-15T14:09:24.028Z,2.10
2018-04-15T14:11:51.576Z,2.87
2018-04-15T14:14:19.077Z,50.23
2018-04-15T14:16:46.610Z,79.17
2018-04-15T14:19:14.114Z,99.33
2018-04-15T14:21:43.315Z,127.23
2018-04-15T14:24:11.641Z,112.93
2018-04-15T14:26:39.175Z,107.80
2018-04-15T14:29:06.720Z,102.47
2018-04-15T14:31:34.243Z,69.80
2018-04-15T14:34:02.543Z,59.03
2018-04-15T14:36:30.824Z,61.37
2018-04-15T14:39:01.073Z,66.33
2018-04-15T14:41:28.580Z,70.47
2018-04-15T14:43:57.005Z,53.53
2018-04-15T14:46:24.520Z,51.73
2018-04-15T14:48:53.764Z,61.00
2018-04-15T14:51:21.290Z,41.67
2018-04-15T14:53:49.562Z,47.53
2018-04-15T14:56:17.872Z,50.93
2018-04-15T14:58:45.386Z,42.20
2018-04-15T15:01:13.702Z,39.30
2018-04-15T15:03:41.204Z,37.43
2018-04-15T15:06:08.735Z,49.27
2018-04-15T15:08:36.248Z,40.93
2018-04-15T15:11:05.006Z,40.60
2018-04-15T15:13:33.307Z,41.17
2018-04-15T15:16:01.576Z,42.17
2018-04-15T15:18:31.821Z,28.00
2018-04-15T15:20:59.328Z,47.03
2018-04-15T15:23:26.864Z,27.73
2018-04-15T15:25:54.379Z,39.73
2018-04-15T15:28:22.706Z,36.70
2018-04-15T15:30:50.200Z,28.43
2018-04-15T15:33:17.703Z,30.90
2018-04-15T15:35:45.240Z,34.97
2018-04-15T15:38:12.741Z,23.80
2018-04-15T15:40:40.276Z,32.90
2018-04-15T15:43:07.832Z,38.73
2018-04-15T15:45:35.357Z,23.67
2018-04-15T15:48:02.876Z,32.73
2018-04-15T15:50:30.404Z,20.37
2018-04-15T15:52:57.914Z,18.37
2018-04-15T15:55:26.199Z,17.97
2018-04-15T15:57:54.499Z,18.97
2018-04-15T16:00:22.013Z,20.90
2018-04-15T16:02:50.329Z,32.00
2018-04-15T16:05:17.882Z,19.80
2018-04-15T16:07:46.173Z,12.10
2018-04-15T16:10:13.678Z,12.90
2018-04-15T16:12:42.710Z,17.63
2018-04-15T16:15:11.158Z,15.23
2018-04-15T16:17:39.435Z,16.80
2018-04-15T16:20:07.749Z,13.77
2018-04-15T16:22:35.257Z,27.90
2018-04-15T16:25:04.299Z,16.70
2018-04-15T16:27:31.807Z,19.47
2018-04-15T16:29:59.341Z,13.20
2018-04-15T16:32:26.865Z,16.50
2018-04-15T16:34:54.405Z,14.07
2018-04-15T16:37:22.690Z,13.03
2018-04-15T16:39:50.205Z,20.50
2018-04-15T16:42:17.739Z,13.20
2018-04-15T16:44:45.261Z,12.80
2018-04-15T16:47:12.855Z,12.90
2018-04-15T16:49:40.354Z,10.97
2018-04-15T16:52:08.646Z,10.33
2018-04-15T16:54:36.155Z,10.67
2018-04-15T16:57:03.691Z,13.00
2018-04-15T16:59:31.204Z,10.83
2018-04-15T17:01:59.503Z,11.80
2018-04-15T17:04:27.072Z,11.00
2018-04-15T17:06:54.581Z,12.37
2018-04-15T17:09:22.872Z,13.57
2018-04-15T17:11:51.141Z,8.33
2018-04-15T17:14:19.440Z,13.03
2018-04-15T17:16:46.966Z,15.90
2018-04-15T17:19:15.300Z,8.83
2018-04-15T17:21:43.769Z,9.27
2018-04-15T17:24:11.307Z,9.30
2018-04-15T17:26:38.813Z,8.33
2018-04-15T17:29:06.337Z,12.23
2018-04-15T17:31:33.855Z,12.13
2018-04-15T17:34:02.130Z,12.33
2018-04-15T17:36:30.435Z,7.27
2018-04-15T17:38:57.939Z,8.90
2018-04-15T17:41:25.463Z,12.07
2018-04-15T17:43:52.963Z,9.20
2018-04-15T17:46:22.419Z,7.87
2018-04-15T17:48:49.949Z,9.50
2018-04-15T17:51:18.241Z,9.70
2018-04-15T17:53:45.744Z,8.50
2018-04-15T17:56:13.268Z,10.00
2018-04-15T17:58:40.769Z,6.13
2018-04-15T18:01:08.279Z,7.43
2018-04-15T18:03:35.809Z,7.50
2018-04-15T18:06:04.078Z,7.30
2018-04-15T18:08:32.371Z,7.80
2018-04-15T18:11:01.604Z,6.47
2018-04-15T18:13:29.173Z,7.03
2018-04-15T18:15:56.671Z,6.83
2018-04-15T18:18:24.965Z,6.73
2018-04-15T18:20:52.468Z,6.97
2018-04-15T18:23:20.008Z,6.23
2018-04-15T18:25:47.518Z,9.00
2018-04-15T18:28:15.859Z,9.07
2018-04-15T18:30:44.103Z,8.13
2018-04-15T18:33:11.600Z,7.53
2018-04-15T18:35:39.892Z,6.80
2018-04-15T18:38:08.166Z,11.47
2018-04-15T18:40:36.478Z,6.53
2018-04-15T18:43:03.974Z,4.93
2018-04-15T18:45:31.519Z,4.80
2018-04-15T18:47:59.031Z,6.20
2018-04-15T18:50:26.641Z,5.90
2018-04-15T18:52:54.857Z,8.30
2018-04-15T18:55:23.162Z,8.60
2018-04-15T18:57:50.674Z,6.00
2018-04-15T19:00:19.683Z,4.63
2018-04-15T19:02:47.980Z,5.20
2018-04-15T19:05:15.496Z,5.80
2018-04-15T19:07:43.037Z,9.03
2018-04-15T19:10:10.541Z,5.33
2018-04-15T19:12:38.084Z,5.63
2018-04-15T19:15:07.323Z,8.03
2018-04-15T19:17:34.875Z,4.13
2018-04-15T19:20:02.376Z,6.83
2018-04-15T19:22:29.874Z,3.83
2018-04-15T19:24:57.391Z,8.20
2018-04-15T19:27:24.899Z,6.30
2018-04-15T19:29:52.431Z,3.27
2018-04-15T19:32:20.699Z,5.10
2018-04-15T19:34:49.009Z,7.27
2018-04-15T19:37:16.507Z,7.47
2018-04-15T19:39:44.023Z,5.13
2018-04-15T19:42:11.511Z,5.03
2018-04-15T19:44:39.007Z,6.17
2018-04-15T19:47:07.308Z,5.40
2018-04-15T19:49:34.833Z,8.90
2018-04-15T19:52:04.391Z,4.10
2018-04-15T19:54:32.036Z,5.27
2018-04-15T19:56:59.902Z,4.83
2018-04-15T19:59:27.871Z,6.83
2018-04-15T20:01:55.836Z,5.20
2018-04-15T20:04:24.725Z,4.43
2018-04-15T20:06:52.695Z,5.53
2018-04-15T20:09:20.378Z,5.13
2018-04-15T20:11:49.054Z,7.10
2018-04-15T20:14:17.760Z,7.83
2018-04-15T20:16:45.590Z,9.90
2018-04-15T20:19:14.580Z,4.83
2018-04-15T20:21:42.445Z,7.60
2018-04-15T20:24:10.212Z,4.20
2018-04-15T20:26:37.760Z,5.63
2018-04-15T20:29:05.288Z,3.80
2018-04-15T20:31:33.583Z,4.43
2018-04-15T20:34:01.088Z,7.07
2018-04-15T20:36:28.584Z,5.13
2018-04-15T20:38:56.862Z,6.63
2018-04-15T20:41:25.131Z,5.40
2018-04-15T20:43:53.427Z,10.07
2018-04-15T20:46:20.963Z,10.87
2018-04-15T20:48:49.238Z,3.70
2018-04-15T20:51:17.551Z,6.77
2018-04-15T20:53:45.803Z,6.60
2018-04-15T20:56:13.303Z,5.37
2018-04-15T20:58:42.790Z,3.90
2018-04-15T21:01:10.308Z,4.37
2018-04-15T21:03:39.243Z,6.73
2018-04-15T21:06:07.769Z,3.70
2018-04-15T21:08:36.039Z,12.37
2018-04-15T21:11:03.548Z,3.43
2018-04-15T21:13:32.032Z,4.53
2018-04-15T21:15:59.547Z,5.23
2018-04-15T21:18:27.839Z,3.17
2018-04-15T21:20:55.431Z,3.40
2018-04-15T21:23:23.274Z,3.53
2018-04-15T21:25:50.888Z,3.50
2018-04-15T21:28:19.186Z,2.93
2018-04-15T21:30:46.739Z,3.37
2018-04-15T21:33:17.029Z,3.10
2018-04-15T21:35:44.530Z,6.73
2018-04-15T21:38:14.062Z,8.70
2018-04-15T21:40:42.740Z,3.00
2018-04-15T21:43:11.629Z,3.37
2018-04-15T21:45:40.347Z,3.70
2018-04-15T21:48:08.640Z,5.60
2018-04-15T21:50:36.140Z,5.60
2018-04-15T21:53:03.671Z,3.57
2018-04-15T21:55:31.961Z,5.80
2018-04-15T21:57:59.498Z,3.40
2018-04-15T22:00:27.843Z,4.93
2018-04-15T22:02:55.339Z,4.27
2018-04-15T22:05:23.638Z,4.93
2018-04-15T22:07:51.158Z,5.03
2018-04-15T22:10:19.580Z,4.90
2018-04-15T22:12:47.108Z,4.63
2018-04-15T22:15:15.421Z,4.63
2018-04-15T22:17:44.100Z,2.87
2018-04-15T22:20:11.637Z,4.00
2018-04-15T22:22:39.140Z,4.87
2018-04-15T22:25:06.698Z,3.80
2018-04-15T22:27:34.239Z,7.00
2018-04-15T22:30:01.757Z,3.93
2018-04-15T22:32:31.469Z,3.70
2018-04-15T22:34:59.363Z,3.90
2018-04-15T22:37:27.329Z,5.80
2018-04-15T22:39:56.218Z,3.37
2018-04-15T22:42:24.083Z,4.00
2018-04-15T22:44:52.051Z,4.87
2018-04-15T22:47:19.876Z,3.07
2018-04-15T22:49:54.070Z,4.23
2018-04-15T22:52:22.099Z,3.70
2018-04-15T22:54:51.705Z,4.07
2018-04-15T22:57:19.257Z,3.77
2018-04-15T22:59:46.796Z,3.70
2018-04-15T23:02:15.066Z,2.97
2018-04-15T23:04:43.350Z,3.03
2018-04-15T23:07:10.849Z,3.43
2018-04-15T23:09:39.306Z,5.07
2018-04-15T23:12:06.831Z,3.60
2018-04-15T23:14:35.099Z,7.17
2018-04-15T23:17:05.350Z,14.80
2018-04-15T23:19:32.877Z,6.10
2018-04-15T23:22:01.173Z,10.00
2018-04-15T23:24:28.663Z,5.23
2018-04-15T23:26:56.179Z,7.17
2018-04-15T23:29:25.402Z,7.23
2018-04-15T23:31:52.926Z,9.20
2018-04-15T23:34:21.187Z,6.23
2018-04-15T23:36:49.452Z,5.47
2018-04-15T23:39:16.993Z,9.90
2018-04-15T23:41:44.491Z,5.07
2018-04-15T23:44:12.765Z,9.23
2018-04-15T23:46:41.064Z,5.20
2018-04-15T23:49:08.564Z,3.93
2018-04-15T23:51:36.088Z,5.17
2018-04-15T23:54:03.591Z,4.13
2018-04-15T23:56:31.083Z,5.10
2018-04-15T23:58:58.608Z,5.60
